sensor_id;sensor_type;location;lat;lon;timestamp;P1;durP1;ratioP1;P2;durP2;ratioP2
3633;SDS011;1833;42.718;23.270;2023-03-13T07:06:56;40.83;;;36.30;;
3633;SDS011;1833;42.718;23.270;2023-03-13T07:09:24;40.77;;;36.20;;
3633;SDS011;1833;42.718;23.270;2023-03-13T07:27:10;39.77;;;36.07;;
3633;SDS011;1833;42.718;23.270;2023-03-13T07:29:39;38.60;;;34.60;;
3633;SDS011;1833;42.718;23.270;2023-03-13T11:44:11;39.93;;;35.40;;
3633;SDS011;1833;42.718;23.270;2023-03-13T11:46:58;38.47;;;34.50;;
3633;SDS011;1833;42.718;23.270;2023-03-13T11:56:07;39.83;;;35.67;;
3633;SDS011;1833;42.718;23.270;2023-03-13T11:59:06;40.00;;;36.00;;
3633;SDS011;1833;42.718;23.270;2023-03-13T12:01:42;37.60;;;33.60;;
3633;SDS011;1833;42.718;23.270;2023-03-13T12:04:12;38.83;;;34.80;;
3633;SDS011;1833;42.718;23.270;2023-03-13T12:06:44;38.57;;;34.77;;
3633;SDS011;1833;42.718;23.270;2023-03-13T12:09:13;39.40;;;35.20;;
3633;SDS011;1833;42.718;23.270;2023-03-13T12:11:42;40.40;;;36.20;;
3633;SDS011;1833;42.718;23.270;2023-03-13T12:14:15;41.10;;;37.00;;
3633;SDS011;1833;42.718;23.270;2023-03-13T12:17:16;42.47;;;36.47;;
3633;SDS011;1833;42.718;23.270;2023-03-13T12:19:49;41.07;;;36.83;;
3633;SDS011;1833;42.718;23.270;2023-03-13T12:22:19;42.00;;;37.90;;
3633;SDS011;1833;42.718;23.270;2023-03-13T12:24:50;38.43;;;34.83;;
3633;SDS011;1833;42.718;23.270;2023-03-13T12:27:20;40.50;;;36.17;;
3633;SDS011;1833;42.718;23.270;2023-03-13T12:30:06;40.90;;;36.90;;
3633;SDS011;1833;42.718;23.270;2023-03-13T12:58:29;37.60;;;34.17;;
3633;SDS011;1833;42.718;23.270;2023-03-13T13:01:25;40.77;;;36.50;;
3633;SDS011;1833;42.718;23.270;2023-03-13T13:04:17;42.13;;;36.70;;
3633;SDS011;1833;42.718;23.270;2023-03-13T13:07:24;39.97;;;36.17;;
3633;SDS011;1833;42.718;23.270;2023-03-13T13:10:15;40.77;;;36.67;;
3633;SDS011;1833;42.718;23.270;2023-03-13T13:13:27;40.87;;;36.83;;
3633;SDS011;1833;42.718;23.270;2023-03-13T13:31:05;38.00;;;34.20;;
3633;SDS011;1833;42.718;23.270;2023-03-13T13:37:43;36.77;;;33.17;;
3633;SDS011;1833;42.718;23.270;2023-03-13T13:43:22;37.03;;;33.33;;
3633;SDS011;1833;42.718;23.270;2023-03-13T13:46:00;37.90;;;34.40;;
3633;SDS011;1833;42.718;23.270;2023-03-13T13:48:38;38.43;;;33.77;;
3633;SDS011;1833;42.718;23.270;2023-03-13T13:51:41;38.03;;;34.23;;
3633;SDS011;1833;42.718;23.270;2023-03-13T14:03:38;38.40;;;34.57;;
3633;SDS011;1833;42.718;23.270;2023-03-13T14:06:24;37.07;;;33.23;;
3633;SDS011;1833;42.718;23.270;2023-03-13T14:09:38;36.93;;;33.43;;
3633;SDS011;1833;42.718;23.270;2023-03-13T14:43:19;37.77;;;33.77;;
3633;SDS011;1833;42.718;23.270;2023-03-13T14:45:51;36.73;;;33.13;;
3633;SDS011;1833;42.718;23.270;2023-03-13T14:48:26;55.67;;;44.50;;
3633;SDS011;1833;42.718;23.270;2023-03-13T14:54:32;36.67;;;32.97;;
3633;SDS011;1833;42.718;23.270;2023-03-13T14:57:16;38.00;;;32.80;;
3633;SDS011;1833;42.718;23.270;2023-03-13T15:06:01;40.57;;;36.17;;
3633;SDS011;1833;42.718;23.270;2023-03-13T15:08:36;38.27;;;34.37;;
3633;SDS011;1833;42.718;23.270;2023-03-13T15:11:30;38.60;;;34.57;;
3633;SDS011;1833;42.718;23.270;2023-03-13T15:17:12;38.23;;;34.40;;
3633;SDS011;1833;42.718;23.270;2023-03-13T15:19:50;38.27;;;34.23;;
3633;SDS011;1833;42.718;23.270;2023-03-13T15:22:28;36.77;;;33.17;;
3633;SDS011;1833;42.718;23.270;2023-03-13T15:25:18;35.93;;;32.30;;
3633;SDS011;1833;42.718;23.270;2023-03-13T15:27:53;41.37;;;34.63;;
3633;SDS011;1833;42.718;23.270;2023-03-13T15:30:24;36.00;;;32.50;;
3633;SDS011;1833;42.718;23.270;2023-03-13T15:33:09;39.60;;;35.33;;
3633;SDS011;1833;42.718;23.270;2023-03-13T15:36:08;42.43;;;34.33;;
3633;SDS011;1833;42.718;23.270;2023-03-13T15:38:42;38.00;;;34.40;;
3633;SDS011;1833;42.718;23.270;2023-03-13T15:41:22;37.30;;;33.50;;
3633;SDS011;1833;42.718;23.270;2023-03-13T15:43:54;36.37;;;32.67;;
3633;SDS011;1833;42.718;23.270;2023-03-13T15:46:53;38.90;;;34.90;;
3633;SDS011;1833;42.718;23.270;2023-03-13T15:50:08;37.03;;;33.10;;
3633;SDS011;1833;42.718;23.270;2023-03-13T15:53:19;35.47;;;32.10;;
3633;SDS011;1833;42.718;23.270;2023-03-13T15:58:53;41.63;;;37.07;;
3633;SDS011;1833;42.718;23.270;2023-03-13T16:07:47;39.20;;;35.20;;
3633;SDS011;1833;42.718;23.270;2023-03-13T16:10:22;37.97;;;33.97;;
3633;SDS011;1833;42.718;23.270;2023-03-13T16:12:58;39.50;;;34.40;;
3633;SDS011;1833;42.718;23.270;2023-03-13T16:15:32;37.90;;;34.10;;
3633;SDS011;1833;42.718;23.270;2023-03-13T16:18:02;37.80;;;33.83;;
3633;SDS011;1833;42.718;23.270;2023-03-13T16:20:48;37.00;;;32.93;;
3633;SDS011;1833;42.718;23.270;2023-03-13T16:23:16;36.93;;;33.10;;
3633;SDS011;1833;42.718;23.270;2023-03-13T16:25:45;35.80;;;32.20;;
3633;SDS011;1833;42.718;23.270;2023-03-13T16:28:13;41.10;;;32.90;;
3633;SDS011;1833;42.718;23.270;2023-03-13T16:30:54;35.50;;;32.00;;
3633;SDS011;1833;42.718;23.270;2023-03-13T16:33:33;44.00;;;33.50;;
3633;SDS011;1833;42.718;23.270;2023-03-13T16:36:21;36.23;;;32.50;;
3633;SDS011;1833;42.718;23.270;2023-03-13T16:39:15;37.53;;;32.50;;
3633;SDS011;1833;42.718;23.270;2023-03-13T18:17:33;68.50;;;47.13;;
3633;SDS011;1833;42.718;23.270;2023-03-13T18:20:00;67.33;;;51.63;;
3633;SDS011;1833;42.718;23.270;2023-03-13T18:22:29;87.27;;;57.63;;
3633;SDS011;1833;42.718;23.270;2023-03-13T18:25:16;101.07;;;61.10;;
3633;SDS011;1833;42.718;23.270;2023-03-13T18:27:46;86.70;;;55.57;;
3633;SDS011;1833;42.718;23.270;2023-03-13T18:30:15;68.70;;;48.37;;
3633;SDS011;1833;42.718;23.270;2023-03-13T18:32:44;76.03;;;54.13;;
3633;SDS011;1833;42.718;23.270;2023-03-13T18:35:12;92.03;;;51.33;;
3633;SDS011;1833;42.718;23.270;2023-03-13T18:37:42;70.03;;;48.80;;
3633;SDS011;1833;42.718;23.270;2023-03-13T18:40:14;70.33;;;52.00;;
3633;SDS011;1833;42.718;23.270;2023-03-13T18:46:04;80.70;;;51.40;;
3633;SDS011;1833;42.718;23.270;2023-03-13T19:00:55;70.53;;;45.90;;
3633;SDS011;1833;42.718;23.270;2023-03-13T19:03:37;63.63;;;46.53;;
3633;SDS011;1833;42.718;23.270;2023-03-13T19:06:19;76.43;;;45.90;;
3633;SDS011;1833;42.718;23.270;2023-03-13T19:15:01;85.13;;;52.30;;
3633;SDS011;1833;42.718;23.270;2023-03-13T19:17:31;86.40;;;51.77;;
3633;SDS011;1833;42.718;23.270;2023-03-13T19:20:22;90.80;;;52.60;;
3633;SDS011;1833;42.718;23.270;2023-03-13T19:23:09;84.67;;;52.23;;
3633;SDS011;1833;42.718;23.270;2023-03-13T20:01:28;79.20;;;45.97;;
